Time;durP1;ratioP1;P1;durP2;ratioP2;P2;SDS_P1;SDS_P2;PMS_P1;PMS_P2;Temp;Humidity;BMP_temperature;BMP_pressure;BME280_temperature;BME280_humidity;BME280_pressure;Samples;Min_cycle;Max_cycle;Signal;HPM_P1;HPM_P2
2021/04/11 00:02:07;;;;;;;5.27;3.60;;;;;;;10.48;77.60;99620.08;627953;226;24874;-79
2021/04/11 00:04:35;;;;;;;5.00;3.77;;;;;;;10.55;77.58;99614.55;627369;225;24850;-80
2021/04/11 00:07:02;;;;;;;5.07;3.67;;;;;;;10.57;77.16;99617.02;628046;225;24858;-80
2021/04/11 00:09:30;;;;;;;4.60;3.80;;;;;;;10.64;76.65;99608.41;625208;229;23887;-80
2021/04/11 00:11:58;;;;;;;6.50;3.67;;;;;;;10.64;75.82;99601.91;625803;228;24852;-79
2021/04/11 00:14:30;;;;;;;6.67;3.80;;;;;;;10.60;76.27;99603.69;636884;225;24777;-79
2021/04/11 00:16:59;;;;;;;7.93;3.90;;;;;;;10.65;75.32;99602.23;637957;223;24768;-79
2021/04/11 00:19:26;;;;;;;3.83;3.47;;;;;;;10.68;74.79;99594.09;631455;227;24853;-79
2021/04/11 00:21:54;;;;;;;6.23;3.83;;;;;;;10.81;74.28;99591.51;630692;224;24871;-79
2021/04/11 00:24:22;;;;;;;6.50;3.87;;;;;;;10.77;74.01;99587.13;626369;229;26360;-79
2021/04/11 00:26:50;;;;;;;6.13;3.97;;;;;;;10.70;74.28;99586.16;628723;226;24802;-79
2021/04/11 00:29:18;;;;;;;7.17;3.70;;;;;;;10.72;74.25;99579.50;634236;224;24817;-79
2021/04/11 00:31:46;;;;;;;4.50;3.50;;;;;;;10.52;73.42;99569.87;638993;225;24782;-79
2021/04/11 00:34:14;;;;;;;4.50;3.47;;;;;;;10.34;74.19;99568.22;624125;229;25254;-79
2021/04/11 00:36:42;;;;;;;8.00;4.33;;;;;;;10.18;75.14;99575.95;629822;226;24818;-79
2021/04/11 00:39:09;;;;;;;4.20;3.80;;;;;;;10.26;75.44;99572.58;628914;226;23848;-82
2021/04/11 00:41:38;;;;;;;6.03;3.73;;;;;;;10.38;75.41;99565.62;629366;225;23892;-82
2021/04/11 00:44:11;;;;;;;4.53;3.47;;;;;;;10.31;74.90;99566.44;628948;225;24846;-80
2021/04/11 00:46:41;;;;;;;6.43;3.30;;;;;;;10.34;75.18;99564.81;635228;225;24811;-79
2021/04/11 00:49:10;;;;;;;5.97;4.17;;;;;;;10.50;74.52;99558.33;625332;229;24819;-79
2021/04/11 00:51:37;;;;;;;5.10;3.70;;;;;;;10.12;76.24;99570.07;636647;225;23801;-79
2021/04/11 00:54:06;;;;;;;6.63;4.00;;;;;;;10.32;76.05;99571.47;636791;225;25015;-79
2021/04/11 00:56:34;;;;;;;6.20;3.90;;;;;;;10.26;76.51;99568.19;638471;224;24778;-79
2021/04/11 00:59:01;;;;;;;6.10;4.50;;;;;;;10.08;77.47;99577.38;637679;223;24784;-78
2021/04/11 01:01:29;;;;;;;6.55;3.55;;;;;;;10.41;76.50;99565.78;630666;225;37480;-79
2021/04/11 01:03:57;;;;;;;5.33;3.50;;;;;;;10.20;77.07;99564.09;624176;230;24807;-80
2021/04/11 01:06:25;;;;;;;5.57;3.40;;;;;;;10.05;77.09;99566.48;637805;225;25031;-79
2021/04/11 01:08:53;;;;;;;6.13;3.90;;;;;;;10.10;77.38;99557.73;625323;229;24823;-82
2021/04/11 01:11:22;;;;;;;5.97;3.70;;;;;;;10.14;76.47;99549.16;625585;229;24803;-82
2021/04/11 01:13:54;;;;;;;5.40;3.40;;;;;;;10.20;75.87;99547.20;626065;229;24805;-81
2021/04/11 01:16:24;;;;;;;4.83;3.60;;;;;;;10.15;76.00;99545.09;637467;225;24781;-81
2021/04/11 01:18:52;;;;;;;5.20;3.57;;;;;;;10.01;77.04;99548.30;624670;229;24838;-81
2021/04/11 01:21:23;;;;;;;3.67;3.27;;;;;;;10.22;76.57;99537.49;634868;225;27034;-81
2021/04/11 01:23:55;;;;;;;5.20;3.60;;;;;;;10.80;73.61;99531.36;631222;225;32712;-81
2021/04/11 01:26:24;;;;;;;5.70;3.80;;;;;;;10.30;75.33;99537.52;632408;225;23678;-82
2021/04/11 01:28:54;;;;;;;6.70;3.60;;;;;;;10.25;75.77;99538.47;622112;229;24919;-81
2021/04/11 01:31:22;;;;;;;5.00;4.00;;;;;;;10.35;75.04;99539.14;625874;229;27073;-82
2021/04/11 01:33:50;;;;;;;4.70;3.80;;;;;;;10.84;73.50;99530.05;630094;224;32652;-81
2021/04/11 01:36:18;;;;;;;7.10;4.13;;;;;;;10.43;74.77;99536.56;638430;224;24801;-81
2021/04/11 01:38:46;;;;;;;3.80;3.30;;;;;;;10.17;75.84;99537.95;637136;225;24795;-81
2021/04/11 01:41:16;;;;;;;4.13;3.70;;;;;;;10.06;76.36;99540.84;622277;229;24888;-81
2021/04/11 01:43:44;;;;;;;5.97;4.30;;;;;;;10.00;76.64;99538.88;632765;225;24916;-81
2021/04/11 01:46:12;;;;;;;7.70;4.22;;;;;;;10.59;75.29;99533.16;632063;225;32690;-81
2021/04/11 01:48:40;;;;;;;7.28;4.08;;;;;;;10.84;73.79;99526.14;620247;229;33018;-81
2021/04/11 01:51:08;;;;;;;4.37;3.97;;;;;;;10.29;76.13;99530.70;622979;229;23727;-81
2021/04/11 01:53:35;;;;;;;6.40;3.43;;;;;;;10.23;76.14;99529.53;623661;230;24896;-81
2021/04/11 01:56:06;;;;;;;6.50;3.53;;;;;;;10.29;75.43;99530.70;624512;229;25943;-80
2021/04/11 01:58:35;;;;;;;5.97;4.47;;;;;;;10.18;75.86;99525.77;622693;225;24822;-81
2021/04/11 02:01:07;;;;;;;10.77;4.27;;;;;;;10.19;76.05;99526.09;629956;225;24858;-81
2021/04/11 02:03:35;;;;;;;6.53;4.37;;;;;;;10.15;76.17;99518.30;635528;225;23792;-82
2021/04/11 02:06:03;;;;;;;5.07;4.20;;;;;;;10.12;77.02;99525.90;625125;229;28056;-81
2021/04/11 02:08:31;;;;;;;4.90;3.63;;;;;;;10.07;76.31;99526.88;625367;229;24805;-81
2021/04/11 02:10:59;;;;;;;3.70;3.20;;;;;;;10.03;76.46;99519.08;623936;229;24829;-82
2021/04/11 02:13:27;;;;;;;6.30;4.10;;;;;;;9.78;77.38;99518.19;629243;225;23838;-81
2021/04/11 02:15:59;;;;;;;4.83;3.70;;;;;;;9.77;77.49;99524.34;635981;225;24759;-81
2021/04/11 02:18:27;;;;;;;6.40;3.93;;;;;;;9.76;77.87;99520.94;623875;229;24802;-81
2021/04/11 02:20:55;;;;;;;4.60;4.13;;;;;;;9.74;77.13;99515.58;637510;225;25020;-81
2021/04/11 02:23:22;;;;;;;7.50;4.20;;;;;;;9.54;78.89;99516.30;638222;225;24795;-81
2021/04/11 02:25:50;;;;;;;7.70;4.60;;;;;;;9.30;79.95;99524.80;623672;229;24880;-81
2021/04/11 02:28:18;;;;;;;7.27;4.83;;;;;;;9.33;79.81;99533.56;637477;225;24834;-81
2021/04/11 02:30:52;;;;;;;4.77;4.27;;;;;;;9.22;81.58;99532.52;637381;225;24827;-82
2021/04/11 02:33:20;;;;;;;5.30;4.43;;;;;;;9.35;81.90;99531.62;624590;228;24831;-81
2021/04/11 02:35:48;;;;;;;4.57;3.80;;;;;;;9.55;80.40;99528.79;637599;225;24751;-81
2021/04/11 02:38:16;;;;;;;6.43;4.70;;;;;;;9.62;81.21;99522.02;625143;228;24906;-81
2021/04/11 02:40:44;;;;;;;8.07;6.10;;;;;;;9.67;81.22;99515.86;635153;224;24861;-78
2021/04/11 02:43:12;;;;;;;8.80;4.63;;;;;;;9.61;81.01;99521.70;634317;225;24771;-79
2021/04/11 02:45:39;;;;;;;7.60;4.60;;;;;;;9.43;82.79;99526.95;630975;225;24851;-81
2021/04/11 02:48:09;;;;;;;5.77;4.50;;;;;;;9.35;83.67;99536.81;638457;225;24778;-81
2021/04/11 02:50:37;;;;;;;10.00;5.20;;;;;;;9.37;83.90;99530.98;634655;223;25854;-82
2021/04/11 02:53:09;;;;;;;4.97;4.50;;;;;;;9.25;84.45;99535.28;639067;224;24779;-81
2021/04/11 02:55:37;;;;;;;7.33;5.03;;;;;;;9.35;83.74;99526.44;638896;225;26994;-82
2021/04/11 02:58:04;;;;;;;8.33;4.07;;;;;;;9.45;83.32;99527.14;624980;229;24855;-82
2021/04/11 03:00:32;;;;;;;5.27;4.20;;;;;;;10.13;81.32;99513.23;619980;229;33049;-81
2021/04/11 03:03:00;;;;;;;5.77;4.97;;;;;;;9.81;82.06;99522.57;626647;229;23837;-81
2021/04/11 03:05:30;;;;;;;6.63;4.20;;;;;;;9.79;81.51;99527.11;637674;225;24790;-81
2021/04/11 03:08:08;;;;;;;5.87;4.40;;;;;;;9.87;81.21;99521.14;637664;225;24765;-81
2021/04/11 03:10:41;;;;;;;8.20;4.93;;;;;;;10.00;81.46;99511.61;625813;223;27001;-81
2021/04/11 03:13:09;;;;;;;5.07;3.87;;;;;;;9.80;81.37;99522.73;625885;228;25080;-81
2021/04/11 03:15:37;;;;;;;7.43;5.13;;;;;;;9.94;80.98;99509.62;631521;225;32658;-81
2021/04/11 03:18:05;;;;;;;5.00;4.27;;;;;;;9.79;81.91;99510.72;636825;225;24786;-82
2021/04/11 03:20:33;;;;;;;5.30;4.10;;;;;;;9.98;82.02;99509.14;638852;225;24759;-82
2021/04/11 03:23:02;;;;;;;9.23;4.67;;;;;;;9.98;80.31;99507.84;638162;225;24771;-81
2021/04/11 03:25:29;;;;;;;5.00;3.97;;;;;;;9.91;81.05;99504.75;625700;229;23838;-82
2021/04/11 03:27:58;;;;;;;5.80;3.97;;;;;;;9.95;81.61;99513.36;625506;228;24884;-81
2021/04/11 03:30:27;;;;;;;5.42;4.03;;;;;;;10.65;79.16;99503.41;631515;225;32757;-81
2021/04/11 03:32:56;;;;;;;6.47;4.40;;;;;;;10.33;81.54;99509.41;625019;228;23716;-81
2021/04/11 03:35:24;;;;;;;5.00;3.90;;;;;;;10.46;80.69;99513.33;636240;225;23809;-81
2021/04/11 03:37:52;;;;;;;7.53;4.37;;;;;;;10.36;80.03;99508.27;624858;229;23837;-81
2021/04/11 03:40:20;;;;;;;4.30;3.53;;;;;;;10.25;81.06;99505.98;637486;225;24775;-82
2021/04/11 03:42:48;;;;;;;5.90;4.70;;;;;;;10.35;81.74;99509.25;624114;228;24840;-81
2021/04/11 03:45:17;;;;;;;5.70;3.90;;;;;;;10.45;80.86;99512.52;637838;225;23792;-81
2021/04/11 03:47:45;;;;;;;6.27;4.00;;;;;;;10.43;80.32;99498.87;636513;225;25052;-81
2021/04/11 03:50:13;;;;;;;12.10;4.17;;;;;;;10.49;80.74;99492.20;622902;228;24869;-81
2021/04/11 03:52:42;;;;;;;6.17;4.10;;;;;;;10.56;79.92;99497.91;637733;224;26939;-82
2021/04/11 03:55:11;;;;;;;6.87;4.37;;;;;;;10.52;79.80;99494.47;637617;225;24757;-81
2021/04/11 03:57:39;;;;;;;5.20;3.80;;;;;;;10.51;79.82;99492.84;626835;229;24816;-82
2021/04/11 04:00:08;;;;;;;5.80;4.40;;;;;;;10.59;79.55;99498.87;634617;224;24871;-80
2021/04/11 04:02:40;;;;;;;5.90;4.10;;;;;;;10.47;78.94;99492.85;634759;225;24810;-81
2021/04/11 04:05:09;;;;;;;5.23;3.80;;;;;;;10.91;78.65;99497.22;628645;225;32570;-80
2021/04/11 04:07:39;;;;;;;4.20;3.80;;;;;;;10.87;78.24;99486.33;636204;223;23825;-81
2021/04/11 04:10:07;;;;;;;4.93;4.53;;;;;;;10.81;78.99;99492.17;636131;225;25072;-82
2021/04/11 04:12:48;;;;;;;5.93;3.83;;;;;;;10.84;78.45;99491.03;623900;230;24871;-79
2021/04/11 04:15:28;;;;;;;6.20;4.07;;;;;;;10.90;77.54;99492.98;622580;229;24818;-81
2021/04/11 04:17:59;;;;;;;7.50;4.00;;;;;;;10.90;77.85;99495.59;637089;225;23814;-82
2021/04/11 04:20:28;;;;;;;9.00;4.20;;;;;;;11.04;78.28;99498.01;636748;225;30280;-81
2021/04/11 04:23:03;;;;;;;6.85;3.80;;;;;;;11.63;76.89;99494.56;632115;225;32633;-79
2021/04/11 04:25:37;;;;;;;3.97;3.57;;;;;;;11.14;77.99;99499.45;623353;229;23682;-80
2021/04/11 04:28:08;;;;;;;5.87;3.90;;;;;;;11.15;78.66;99499.78;623506;229;23873;-81
2021/04/11 04:30:40;;;;;;;3.83;3.40;;;;;;;11.13;78.38;99500.93;637160;225;29043;-79
2021/04/11 04:33:15;;;;;;;6.90;4.20;;;;;;;11.25;78.14;99491.77;626034;228;28079;-79
2021/04/11 04:35:43;;;;;;;5.70;3.80;;;;;;;11.19;77.54;99488.53;626618;228;24810;-79
2021/04/11 04:38:16;;;;;;;5.00;3.23;;;;;;;11.10;78.84;99489.03;637217;225;24769;-80
2021/04/11 04:40:46;;;;;;;4.67;4.20;;;;;;;11.04;79.23;99491.02;624897;229;24879;-79
2021/04/11 04:43:16;;;;;;;6.10;3.70;;;;;;;11.00;78.69;99493.63;636926;225;24796;-79
2021/04/11 04:45:44;;;;;;;6.45;3.70;;;;;;;11.65;77.44;99485.59;620247;229;33080;-79
2021/04/11 04:48:13;;;;;;;5.60;3.70;;;;;;;11.21;77.68;99483.48;624864;229;23687;-81
2021/04/11 04:50:41;;;;;;;5.97;4.40;;;;;;;11.22;77.66;99490.80;628379;228;24816;-82
2021/04/11 04:53:12;;;;;;;6.87;4.60;;;;;;;11.26;78.73;99494.22;627554;228;24805;-81
2021/04/11 04:55:42;;;;;;;4.87;3.50;;;;;;;11.22;78.36;99490.31;626437;227;24830;-81
2021/04/11 04:58:10;;;;;;;4.90;4.40;;;;;;;11.28;77.95;99491.45;636325;225;23794;-80
2021/04/11 05:00:38;;;;;;;6.30;3.80;;;;;;;11.16;78.51;99496.20;637326;225;24793;-82
2021/04/11 05:03:07;;;;;;;4.60;3.07;;;;;;;11.02;78.83;99502.08;624545;227;23894;-81
2021/04/11 05:05:35;;;;;;;4.03;3.73;;;;;;;11.05;79.79;99502.23;638336;224;24778;-81
2021/04/11 05:08:04;;;;;;;7.80;6.00;;;;;;;11.09;79.19;99499.13;638336;224;24779;-81
2021/04/11 05:10:33;;;;;;;6.80;3.93;;;;;;;11.35;78.77;99493.69;636901;225;23936;-81
2021/04/11 05:13:01;;;;;;;6.03;3.30;;;;;;;11.36;78.40;99489.30;622150;229;24818;-81
2021/04/11 05:15:30;;;;;;;5.50;3.70;;;;;;;11.44;77.51;99483.58;638916;225;24778;-82
2021/04/11 05:17:59;;;;;;;6.87;4.13;;;;;;;11.36;78.20;99482.30;638056;225;24153;-81
2021/04/11 05:20:27;;;;;;;6.30;3.70;;;;;;;11.40;78.22;99481.00;626357;228;24817;-81
2021/04/11 05:22:56;;;;;;;3.73;3.20;;;;;;;11.37;77.60;99476.11;624950;228;24826;-82
2021/04/11 05:25:25;;;;;;;4.37;3.53;;;;;;;11.41;77.18;99475.30;637550;225;24779;-81
2021/04/11 05:27:55;;;;;;;7.97;3.80;;;;;;;11.34;77.49;99471.24;624936;229;31204;-81
2021/04/11 05:30:25;;;;;;;10.10;4.20;;;;;;;11.22;77.95;99484.30;625952;229;23867;-81
2021/04/11 05:32:53;;;;;;;6.83;4.50;;;;;;;11.21;78.28;99480.07;625292;229;24818;-81
2021/04/11 05:35:20;;;;;;;5.40;3.20;;;;;;;11.35;77.78;99479.38;625932;229;24807;-81
2021/04/11 05:37:52;;;;;;;8.93;4.30;;;;;;;11.74;77.34;99479.38;622882;229;23874;-81
2021/04/11 05:40:20;;;;;;;6.62;4.00;;;;;;;12.34;75.66;99476.09;630449;224;43408;-81
2021/04/11 05:42:54;;;;;;;6.60;3.90;;;;;;;12.15;77.16;99476.07;637277;225;23662;-79
2021/04/11 05:45:23;;;;;;;6.87;3.80;;;;;;;12.25;76.44;99475.84;626087;229;24824;-79
2021/04/11 05:47:55;;;;;;;5.50;3.60;;;;;;;12.05;75.58;99476.78;636462;225;24805;-80
2021/04/11 05:50:23;;;;;;;4.20;3.80;;;;;;;12.12;76.46;99482.13;624888;229;28320;-82
2021/04/11 05:52:55;;;;;;;5.60;3.77;;;;;;;12.38;76.10;99483.88;615546;227;43789;-81
2021/04/11 05:55:26;;;;;;;6.03;4.20;;;;;;;12.37;75.00;99486.16;625521;229;23855;-81
2021/04/11 05:57:55;;;;;;;7.72;4.50;;;;;;;12.47;74.62;99484.63;630307;225;33005;-81
2021/04/11 06:00:25;;;;;;;6.90;4.30;;;;;;;12.59;75.15;99488.45;636686;225;23663;-81
2021/04/11 06:02:53;;;;;;;6.07;4.17;;;;;;;12.86;74.73;99496.20;622739;229;24898;-82
2021/04/11 06:05:22;;;;;;;7.28;3.95;;;;;;;13.36;72.17;99485.58;618386;229;33068;-79
2021/04/11 06:07:52;;;;;;;6.37;4.10;;;;;;;13.29;71.35;99477.67;637350;225;23658;-79
2021/04/11 06:10:21;;;;;;;5.43;3.67;;;;;;;13.26;72.06;99481.15;637898;225;24890;-79
2021/04/11 06:12:53;;;;;;;4.07;3.27;;;;;;;13.20;72.80;99488.38;624681;229;24835;-82
2021/04/11 06:15:22;;;;;;;5.57;3.90;;;;;;;12.96;73.16;99486.33;627335;229;24850;-80
2021/04/11 06:17:52;;;;;;;8.40;3.87;;;;;;;12.93;72.54;99487.96;626243;229;24788;-80
2021/04/11 06:20:20;;;;;;;6.63;3.50;;;;;;;13.08;73.41;99483.56;627048;229;23849;-80
2021/04/11 06:22:48;;;;;;;5.23;3.43;;;;;;;13.47;72.31;99485.63;624495;229;24809;-77
2021/04/11 06:25:16;;;;;;;5.23;3.60;;;;;;;13.62;72.17;99470.73;637807;225;24777;-80
2021/04/11 06:27:46;;;;;;;5.40;4.50;;;;;;;13.88;71.79;99475.47;625886;229;24811;-79
2021/04/11 06:30:14;;;;;;;4.33;3.70;;;;;;;13.59;70.99;99466.70;626037;228;25213;-79
2021/04/11 06:32:44;;;;;;;4.50;3.60;;;;;;;13.47;70.74;99475.98;638084;225;24753;-81
2021/04/11 06:35:12;;;;;;;7.10;3.53;;;;;;;13.64;70.21;99475.28;625485;229;24862;-81
2021/04/11 06:37:40;;;;;;;4.80;3.30;;;;;;;14.39;69.74;99473.56;631373;225;32696;-81
2021/04/11 06:40:11;;;;;;;5.90;3.80;;;;;;;14.38;69.95;99478.99;638827;225;23649;-81
2021/04/11 06:42:54;;;;;;;9.00;4.00;;;;;;;14.75;70.20;99470.05;636301;225;24326;-81
2021/04/11 06:45:29;;;;;;;7.17;3.53;;;;;;;14.86;69.71;99469.53;625892;229;27012;-81
2021/04/11 06:48:29;;;;;;;8.13;3.60;;;;;;;14.75;68.69;99464.81;624854;229;24921;-82
2021/04/11 06:51:13;;;;;;;6.57;3.87;;;;;;;14.72;68.03;99467.31;625293;229;23856;-81
2021/04/11 06:54:12;;;;;;;6.40;3.10;;;;;;;14.54;68.19;99481.38;629533;226;23844;-81
2021/04/11 06:56:46;;;;;;;6.40;3.80;;;;;;;14.06;70.66;99494.66;635048;225;24898;-81
2021/04/11 06:59:27;;;;;;;4.70;3.47;;;;;;;13.93;70.68;99504.47;624883;229;24860;-81
2021/04/11 07:02:04;;;;;;;5.80;4.20;;;;;;;14.03;71.60;99499.76;633180;225;23851;-81
2021/04/11 07:04:43;;;;;;;9.93;3.63;;;;;;;14.36;70.23;99494.07;623282;229;23904;-81
2021/04/11 07:07:45;;;;;;;4.30;3.90;;;;;;;14.77;69.03;99484.55;633989;225;23955;-81
2021/04/11 07:10:21;;;;;;;6.17;3.90;;;;;;;14.73;68.58;99472.86;623782;225;24872;-79
2021/04/11 07:13:03;;;;;;;5.40;3.87;;;;;;;14.93;69.09;99478.75;624032;226;24923;-82
2021/04/11 07:15:37;;;;;;;4.80;3.10;;;;;;;15.28;67.94;99476.44;623214;229;24803;-82
2021/04/11 07:18:25;;;;;;;4.27;3.10;;;;;;;15.23;67.55;99473.59;633529;225;24788;-81
2021/04/11 07:21:04;;;;;;;3.10;2.70;;;;;;;15.59;66.34;99463.36;635377;225;24859;-80
2021/04/11 07:23:56;;;;;;;3.47;2.90;;;;;;;15.20;65.71;99466.13;625277;229;23850;-80
2021/04/11 07:26:33;;;;;;;3.07;2.57;;;;;;;15.78;65.72;99468.42;637867;223;24794;-82
2021/04/11 07:29:07;;;;;;;4.80;2.40;;;;;;;16.29;65.30;99460.84;626284;229;23861;-81
2021/04/11 07:31:40;;;;;;;3.33;2.40;;;;;;;15.86;64.84;99456.42;626157;229;23901;-81
2021/04/11 07:34:15;;;;;;;6.03;3.33;;;;;;;15.51;65.06;99457.80;626248;229;23988;-81
2021/04/11 07:36:52;;;;;;;4.90;2.07;;;;;;;15.81;65.14;99450.97;624482;229;23854;-80
2021/04/11 07:39:25;;;;;;;4.83;2.60;;;;;;;15.68;65.19;99453.86;625541;229;25995;-82
2021/04/11 07:42:05;;;;;;;5.13;2.73;;;;;;;16.06;64.99;99456.48;616771;230;23861;-82
2021/04/11 07:44:45;;;;;;;4.57;2.80;;;;;;;15.76;65.16;99459.91;636453;224;24861;-82
2021/04/11 07:47:20;;;;;;;3.93;2.33;;;;;;;15.50;65.48;99460.63;623375;230;29202;-81
2021/04/11 07:50:08;;;;;;;5.53;2.67;;;;;;;15.66;66.05;99466.86;629263;225;23860;-82
2021/04/11 07:52:45;;;;;;;5.57;3.60;;;;;;;16.12;65.05;99463.55;629284;225;24863;-82
2021/04/11 07:55:18;;;;;;;6.20;2.60;;;;;;;16.31;63.85;99464.88;621458;229;24851;-81
2021/04/11 07:57:56;;;;;;;5.40;2.43;;;;;;;16.49;62.77;99464.80;635394;225;23822;-81
2021/04/11 08:00:35;;;;;;;2.70;2.43;;;;;;;16.11;63.78;99463.25;637348;225;24015;-82
2021/04/11 08:03:27;;;;;;;5.40;2.37;;;;;;;15.88;63.74;99459.15;637254;225;23823;-81
2021/04/11 08:06:21;;;;;;;5.27;3.00;;;;;;;16.10;64.95;99460.31;622481;229;23910;-82
2021/04/11 08:09:10;;;;;;;7.60;3.40;;;;;;;16.51;63.79;99454.91;626191;228;24839;-80
2021/04/11 08:11:50;;;;;;;4.73;2.70;;;;;;;16.27;63.62;99454.98;637176;225;23811;-81
2021/04/11 08:14:28;;;;;;;3.80;2.20;;;;;;;15.97;63.17;99456.66;624852;230;24836;-81
2021/04/11 08:17:02;;;;;;;4.00;1.90;;;;;;;16.18;63.21;99458.80;636797;224;23793;-81
2021/04/11 08:19:53;;;;;;;3.60;2.27;;;;;;;16.78;63.91;99459.67;624954;229;24874;-81
2021/04/11 08:22:28;;;;;;;5.70;3.80;;;;;;;16.84;62.83;99462.27;623633;229;23847;-82
2021/04/11 08:25:03;;;;;;;5.27;2.90;;;;;;;17.05;61.63;99454.67;637440;225;24769;-82
2021/04/11 08:27:54;;;;;;;4.93;1.90;;;;;;;16.40;62.25;99450.25;625595;228;29632;-79
2021/04/11 08:30:32;;;;;;;4.10;2.33;;;;;;;16.99;62.49;99458.11;621707;229;27080;-78
2021/04/11 08:33:20;;;;;;;3.93;2.67;;;;;;;16.94;61.73;99455.80;638979;224;24816;-79
2021/04/11 08:35:53;;;;;;;4.37;2.70;;;;;;;17.69;60.74;99456.48;637702;224;24802;-81
2021/04/11 08:38:31;;;;;;;5.03;2.03;;;;;;;17.74;60.21;99443.53;632173;226;24855;-84
2021/04/11 08:41:09;;;;;;;3.57;1.80;;;;;;;18.07;59.20;99448.59;628258;225;24928;-76
2021/04/11 08:43:42;;;;;;;3.47;1.77;;;;;;;17.35;59.86;99441.84;635475;225;23864;-77
2021/04/11 08:46:14;;;;;;;2.70;1.70;;;;;;;17.44;60.16;99452.92;626141;226;25217;-76
2021/04/11 08:48:45;;;;;;;2.70;1.60;;;;;;;17.20;60.88;99452.61;635500;225;24796;-76
2021/04/11 08:51:16;;;;;;;3.77;1.80;;;;;;;17.93;59.44;99448.37;625300;228;26049;-76
2021/04/11 08:53:46;;;;;;;3.17;2.37;;;;;;;18.23;58.19;99442.00;632012;224;32932;-75
2021/04/11 08:56:15;;;;;;;1.97;1.70;;;;;;;18.36;58.77;99433.19;625137;229;24857;-76
2021/04/11 08:58:45;;;;;;;4.20;1.93;;;;;;;18.56;58.94;99436.97;624821;229;23860;-76
2021/04/11 09:01:18;;;;;;;2.60;1.90;;;;;;;18.32;59.00;99433.34;625644;227;23859;-76
2021/04/11 09:03:51;;;;;;;4.03;1.73;;;;;;;17.63;59.31;99440.20;636710;225;23822;-76
2021/04/11 09:06:23;;;;;;;3.90;1.83;;;;;;;18.13;58.96;99440.34;636978;225;23813;-76
2021/04/11 09:08:56;;;;;;;5.10;2.00;;;;;;;18.17;58.47;99433.65;636642;224;24797;-76
2021/04/11 09:11:27;;;;;;;4.47;1.30;;;;;;;18.29;59.89;99439.00;625522;229;24841;-76
2021/04/11 09:14:00;;;;;;;2.55;1.60;;;;;;;18.11;58.13;99445.02;630417;224;33077;-76
2021/04/11 09:16:32;;;;;;;2.90;2.00;;;;;;;16.85;60.63;99443.38;630294;227;22713;-76
2021/04/11 09:19:04;;;;;;;2.87;1.90;;;;;;;16.97;61.22;99454.88;624570;228;24902;-76
2021/04/11 09:21:37;;;;;;;3.60;2.00;;;;;;;17.39;61.66;99456.69;624479;229;23863;-76
2021/04/11 09:24:06;;;;;;;3.07;1.80;;;;;;;17.05;61.74;99455.98;626328;229;25922;-76
2021/04/11 09:26:49;;;;;;;3.73;1.73;;;;;;;16.79;62.28;99458.15;625297;229;24184;-76
2021/04/11 09:29:24;;;;;;;4.33;1.60;;;;;;;16.71;61.51;99457.54;625131;230;24835;-76
2021/04/11 09:31:59;;;;;;;4.10;1.80;;;;;;;16.47;63.08;99471.57;624530;230;23872;-76
2021/04/11 09:34:36;;;;;;;11.60;1.70;;;;;;;16.22;63.46;99468.72;627763;225;23895;-76
2021/04/11 09:37:10;;;;;;;5.73;2.10;;;;;;;16.06;63.13;99474.34;638229;224;23859;-76
2021/04/11 09:39:46;;;;;;;5.20;1.97;;;;;;;16.08;63.60;99478.88;637956;224;23819;-76
2021/04/11 09:42:25;;;;;;;4.17;2.00;;;;;;;16.54;62.54;99484.69;630995;225;32707;-76
2021/04/11 09:45:00;;;;;;;3.87;2.17;;;;;;;16.20;63.83;99493.55;623599;229;23759;-76
2021/04/11 09:47:42;;;;;;;4.13;1.70;;;;;;;15.93;63.81;99496.09;627120;225;25103;-76
2021/04/11 09:50:31;;;;;;;4.20;1.90;;;;;;;15.60;65.09;99499.89;622335;229;24851;-76
2021/04/11 09:53:11;;;;;;;3.00;1.57;;;;;;;15.99;64.20;99492.67;622538;228;24913;-75
2021/04/11 09:55:40;;;;;;;4.00;2.08;;;;;;;16.32;63.67;99497.17;619846;229;32900;-75
2021/04/11 09:58:24;;;;;;;2.00;1.30;;;;;;;16.12;63.33;99495.03;636550;225;22676;-76
2021/04/11 10:00:54;;;;;;;1.43;1.20;;;;;;;16.16;63.13;99497.55;625206;228;24876;-76
2021/04/11 10:03:28;;;;;;;5.30;1.60;;;;;;;16.63;62.11;99503.18;632593;225;32706;-76
2021/04/11 10:05:59;;;;;;;4.17;1.50;;;;;;;15.86;63.95;99507.56;637282;225;25052;-75
2021/04/11 10:08:52;;;;;;;3.80;1.60;;;;;;;15.92;63.39;99497.11;638165;225;24792;-76
2021/04/11 10:11:24;;;;;;;7.42;1.80;;;;;;;15.94;62.61;99491.16;620398;226;32798;-76
2021/04/11 10:14:05;;;;;;;3.00;1.47;;;;;;;15.41;65.18;99495.34;625442;229;22696;-76
2021/04/11 10:16:33;;;;;;;5.37;1.50;;;;;;;15.93;63.47;99489.55;625076;229;23857;-76
2021/04/11 10:19:26;;;;;;;4.07;1.67;;;;;;;16.43;63.68;99486.08;628975;225;23871;-75
2021/04/11 10:21:55;;;;;;;2.67;1.60;;;;;;;16.40;62.30;99483.87;636187;225;25168;-75
2021/04/11 10:24:30;;;;;;;3.10;1.63;;;;;;;16.88;61.44;99469.23;634313;225;26982;-76
2021/04/11 10:26:59;;;;;;;5.03;2.00;;;;;;;17.29;60.55;99474.70;637794;225;24819;-76
2021/04/11 10:29:27;;;;;;;3.00;1.60;;;;;;;16.48;63.23;99486.31;636227;225;24812;-75
2021/04/11 10:31:55;;;;;;;3.00;1.43;;;;;;;17.19;61.64;99490.42;636394;225;24792;-76
2021/04/11 10:34:25;;;;;;;6.93;1.60;;;;;;;17.55;60.91;99495.66;625233;229;24020;-84
2021/04/11 10:36:53;;;;;;;5.30;1.93;;;;;;;16.90;60.95;99494.81;625233;229;23859;-82
2021/04/11 10:39:23;;;;;;;7.13;1.70;;;;;;;16.45;63.10;99506.37;637872;225;23806;-82
2021/04/11 10:41:59;;;;;;;9.80;1.80;;;;;;;15.86;64.58;99507.05;625997;229;24884;-81
2021/04/11 10:44:34;;;;;;;4.10;2.33;;;;;;;15.73;65.68;99516.19;625539;230;24881;-79
2021/04/11 10:47:10;;;;;;;2.80;1.77;;;;;;;15.98;65.06;99526.47;626255;229;24842;-81
2021/04/11 10:49:42;;;;;;;3.23;1.90;;;;;;;16.19;64.93;99522.10;637251;225;24798;-82
2021/04/11 10:52:17;;;;;;;2.27;1.50;;;;;;;16.15;65.83;99530.05;625954;229;24884;-80
2021/04/11 10:55:08;;;;;;;4.93;1.60;;;;;;;16.46;65.35;99530.30;626482;229;23864;-80
2021/04/11 10:58:00;;;;;;;3.13;1.67;;;;;;;16.75;63.96;99519.14;625574;227;23891;-81
2021/04/11 11:00:31;;;;;;;2.83;2.37;;;;;;;17.36;62.32;99505.23;623658;228;23908;-81
2021/04/11 11:03:28;;;;;;;2.73;1.47;;;;;;;16.74;62.98;99492.58;636538;224;24790;-82
2021/04/11 11:06:06;;;;;;;2.37;1.40;;;;;;;16.89;62.48;99491.86;626614;229;23866;-83
2021/04/11 11:08:42;;;;;;;2.00;1.33;;;;;;;17.04;62.72;99481.97;638932;224;24826;-82
2021/04/11 11:11:24;;;;;;;2.40;1.40;;;;;;;17.18;62.69;99485.38;625438;229;24836;-81
2021/04/11 11:14:01;;;;;;;2.50;1.40;;;;;;;16.80;62.92;99489.16;626649;228;24866;-83
2021/04/11 11:16:32;;;;;;;4.50;1.52;;;;;;;17.03;63.04;99490.86;620722;229;33169;-81
2021/04/11 11:19:09;;;;;;;2.83;1.40;;;;;;;17.00;62.15;99488.62;634444;225;22717;-81
2021/04/11 11:21:49;;;;;;;2.43;1.40;;;;;;;17.77;62.82;99490.45;629309;225;24842;-82
2021/04/11 11:24:21;;;;;;;2.77;1.10;;;;;;;17.54;62.66;99487.47;633612;225;23849;-82
2021/04/11 11:27:03;;;;;;;1.40;1.30;;;;;;;17.57;61.43;99477.84;636231;225;23776;-82
2021/04/11 11:29:53;;;;;;;1.63;1.40;;;;;;;17.53;62.88;99485.05;625793;229;24090;-82
2021/04/11 11:32:22;;;;;;;1.00;0.90;;;;;;;17.75;63.19;99486.42;636517;225;23807;-82
2021/04/11 11:34:53;;;;;;;3.07;1.37;;;;;;;17.62;62.24;99487.77;630150;228;24856;-82
2021/04/11 11:37:24;;;;;;;2.60;1.10;;;;;;;17.06;62.69;99489.64;623047;230;24875;-81
2021/04/11 11:39:53;;;;;;;4.83;1.20;;;;;;;17.27;64.24;99499.89;624879;229;23869;-82
2021/04/11 11:42:27;;;;;;;3.00;1.10;;;;;;;17.48;63.11;99508.03;623943;228;25113;-82
2021/04/11 11:45:04;;;;;;;4.30;1.53;;;;;;;17.13;62.89;99503.05;625671;229;24865;-82
2021/04/11 11:47:32;;;;;;;1.77;1.30;;;;;;;16.85;62.26;99490.66;625268;229;25320;-80
2021/04/11 11:50:01;;;;;;;2.93;1.30;;;;;;;16.47;63.46;99489.95;627422;225;24846;-79
2021/04/11 11:52:29;;;;;;;2.30;1.00;;;;;;;17.27;64.42;99505.66;627010;225;24888;-81
2021/04/11 11:55:00;;;;;;;1.80;1.30;;;;;;;17.67;62.20;99495.31;626174;225;32939;-81
2021/04/11 11:57:40;;;;;;;4.10;1.20;;;;;;;17.76;63.59;99495.41;637616;225;26880;-84
2021/04/11 12:00:10;;;;;;;2.30;1.17;;;;;;;17.54;62.70;99487.47;625164;229;24874;-82